»·PEaware :: SWA3907 KDEN-KLAS

SWA3907 :: KDEN-KLAS

FLIGHT INFORMATION

Flight Status: Arrived
Operator:
Southwest Airlines
More flights by this operator :: More flights under this callsign
Pilot: Daniel W. (24238)
Aircraft: BOEING 737-700
(B737)
More flights by this aircraft type
Origin: KDEN Denver Intl
United States
Destination: KLAS McCarran Intl
United States
More flights between these airports :: More routes between these airports
Route: CONNR7 WERNR ZAKRY GGAPP SITEE4
File this flight plan on PilotEdge
Remarks: PBN / A1D1O1S2T1 NAV / RNVD1E1A1 RNP10 DOF / 210224 REG / N744SW EET / KZLC0046 KZLA0104 CODE / AA030B PER / C
Altitude:
(Current/Filed)
38,000ft
Speed:
(Current/Filed)
448kts
Departed: 24-Feb-21 02:29 PM
Arrived: 24-Feb-21 04:02 PM
Distance/Time
Traveled:
545nm/1:33
Distance/Time
To Go:
Arrived

Flight Plot

Page will automatically refresh every two minutes.

Flight plan parsing failed; only flown route is shown


Map Options




Map Legend


Flown Route
Filed Route
Departure Airport
Arrival Airport
Navaid (VOR, NDB)
Fix

Horizontal Profiles

Position Reports

Time Latitude Longitude Heading Altitude Ground
Speed
24-Feb-21 13:20 39.862603 -104.677073 0 5442ft 0kts
24-Feb-21 13:21 39.862603 -104.677073 0 5442ft 0kts
24-Feb-21 13:22 39.862603 -104.677073 0 5442ft 0kts
24-Feb-21 13:23 39.862603 -104.677073 0 5442ft 0kts
24-Feb-21 13:24 39.862603 -104.677073 0 5442ft 0kts
24-Feb-21 13:25 39.862603 -104.677073 0 5442ft 0kts
24-Feb-21 13:26 39.862603 -104.677073 0 5442ft 0kts
24-Feb-21 13:27 39.862603 -104.677073 0 5442ft 0kts
24-Feb-21 13:28 39.862603 -104.677073 0 5442ft 0kts
24-Feb-21 13:29 39.862603 -104.677073 0 5442ft 0kts
24-Feb-21 13:30 39.862603 -104.677073 0 5442ft 0kts
24-Feb-21 13:31 39.862603 -104.677073 0 5442ft 0kts
24-Feb-21 13:32 39.862603 -104.677073 0 5442ft 0kts
24-Feb-21 13:33 39.862603 -104.677073 0 5442ft 0kts
24-Feb-21 13:34 39.862603 -104.677073 0 5442ft 0kts
24-Feb-21 13:35 39.862603 -104.677073 0 5442ft 0kts
24-Feb-21 13:36 39.862603 -104.677073 0 5442ft 0kts
24-Feb-21 13:37 39.862603 -104.677073 0 5442ft 0kts
24-Feb-21 13:38 39.862603 -104.677073 0 5442ft 0kts
24-Feb-21 13:39 39.862603 -104.677073 0 5442ft 0kts
24-Feb-21 13:40 39.862603 -104.677073 0 5442ft 0kts
24-Feb-21 13:41 39.862603 -104.677073 0 5442ft 0kts
24-Feb-21 13:42 39.862603 -104.677073 0 5442ft 0kts
24-Feb-21 13:43 39.862603 -104.677073 0 5442ft 0kts
24-Feb-21 13:44 39.862603 -104.677073 0 5442ft 0kts
24-Feb-21 13:45 39.862603 -104.677073 0 5442ft 0kts
24-Feb-21 13:46 39.862603 -104.677073 0 5442ft 0kts
24-Feb-21 13:47 39.862603 -104.677073 0 5442ft 0kts
24-Feb-21 13:48 39.862603 -104.677073 0 5442ft 0kts
24-Feb-21 13:49 39.862603 -104.677073 0 5442ft 0kts
24-Feb-21 13:50 39.862603 -104.677073 0 5442ft 0kts
24-Feb-21 13:51 39.862603 -104.677073 0 5442ft 0kts
24-Feb-21 13:52 39.862603 -104.677073 0 5442ft 0kts
24-Feb-21 13:53 39.862603 -104.677073 0 5442ft 0kts
24-Feb-21 13:54 39.862603 -104.677073 0 5442ft 0kts
24-Feb-21 13:55 39.862603 -104.677073 0 5442ft 0kts
24-Feb-21 13:56 39.862603 -104.677073 0 5442ft 0kts
24-Feb-21 13:57 39.862603 -104.677073 0 5442ft 0kts
24-Feb-21 13:58 39.862603 -104.677073 0 5442ft 0kts
24-Feb-21 13:59 39.862603 -104.677073 0 5442ft 0kts
24-Feb-21 14:03 39.862622 -104.677071 359 5442ft 0kts
24-Feb-21 14:04 39.862622 -104.677071 359 5442ft 0kts
24-Feb-21 14:05 39.862622 -104.677071 359 5442ft 0kts
24-Feb-21 14:06 39.862622 -104.677071 0 5442ft 0kts
24-Feb-21 14:07 39.862622 -104.677071 0 5442ft 0kts
24-Feb-21 14:08 39.862622 -104.677071 0 5442ft 0kts
24-Feb-21 14:09 39.862622 -104.677071 0 5442ft 0kts
24-Feb-21 14:10 39.862622 -104.677071 0 5442ft 0kts
24-Feb-21 14:11 39.862622 -104.677071 0 5442ft 0kts
24-Feb-21 14:12 39.862622 -104.677071 0 5442ft 0kts
24-Feb-21 14:13 39.862622 -104.677071 0 5442ft 0kts
24-Feb-21 14:14 39.862622 -104.677071 0 5442ft 0kts
24-Feb-21 14:15 39.862622 -104.677071 0 5442ft 0kts
24-Feb-21 14:16 39.862622 -104.677071 0 5442ft 0kts
24-Feb-21 14:17 39.862622 -104.677071 0 5442ft 0kts
24-Feb-21 14:18 39.862539 -104.677070 3 5442ft 2kts
24-Feb-21 14:19 39.861915 -104.677474 45 5442ft 0kts
24-Feb-21 14:20 39.861915 -104.677474 45 5442ft 0kts
24-Feb-21 14:21 39.861915 -104.677474 45 5442ft 0kts
24-Feb-21 14:22 39.862032 -104.677310 50 5442ft 7kts
24-Feb-21 14:23 39.862235 -104.676707 112 5442ft 6kts
24-Feb-21 14:24 39.861342 -104.669508 89 5442ft 21kts
24-Feb-21 14:25 39.861118 -104.664752 90 5442ft 0kts
24-Feb-21 14:26 39.861116 -104.664237 90 5442ft 11kts
24-Feb-21 14:27 39.861097 -104.660622 94 5442ft 11kts
24-Feb-21 14:28 39.840660 -104.660434 179 5617ft 155kts
24-Feb-21 14:29 39.811807 -104.704002 270 7481ft 230kts
24-Feb-21 14:30 39.824752 -104.797013 280 9628ft 286kts
24-Feb-21 14:31 39.839731 -104.898815 268 9997ft 282kts
24-Feb-21 14:32 39.821106 -105.006514 255 12294ft 334kts
24-Feb-21 14:33 39.798552 -105.126851 256 15821ft 342kts
24-Feb-21 14:34 39.774388 -105.246109 256 19249ft 345kts
24-Feb-21 14:35 39.749455 -105.368657 256 22016ft 356kts
24-Feb-21 14:36 39.723617 -105.494753 256 24363ft 366kts
24-Feb-21 14:37 39.696944 -105.624602 255 26380ft 375kts
24-Feb-21 14:38 39.675382 -105.758087 259 28063ft 383kts
24-Feb-21 14:39 39.656885 -105.895545 258 29718ft 383kts
24-Feb-21 14:40 39.638118 -106.030473 258 31431ft 380kts
24-Feb-21 14:41 39.619647 -106.165323 258 32916ft 379kts
24-Feb-21 14:42 39.601265 -106.299822 258 34210ft 379kts
24-Feb-21 14:43 39.582220 -106.434599 257 35299ft 381kts
24-Feb-21 14:44 39.562702 -106.569715 257 36280ft 383kts
24-Feb-21 14:45 39.537467 -106.703839 249 37227ft 383kts
24-Feb-21 14:46 39.497573 -106.832061 248 38022ft 385kts
24-Feb-21 14:47 39.457434 -106.960546 248 38041ft 385kts
24-Feb-21 14:48 39.416637 -107.088820 248 38046ft 385kts
24-Feb-21 14:49 39.375727 -107.217011 247 38060ft 385kts
24-Feb-21 14:50 39.331591 -107.343760 246 38072ft 386kts
24-Feb-21 14:51 39.287245 -107.470292 246 38066ft 386kts
24-Feb-21 14:52 39.242925 -107.596401 246 38055ft 386kts
24-Feb-21 14:53 39.199161 -107.723208 246 38050ft 386kts
24-Feb-21 14:54 39.155105 -107.849174 246 38032ft 386kts
24-Feb-21 14:55 39.110646 -107.975315 246 38026ft 385kts
24-Feb-21 14:56 39.066067 -108.101136 246 38021ft 387kts
24-Feb-21 14:57 39.021243 -108.227087 246 38021ft 387kts
24-Feb-21 14:58 38.976183 -108.353152 246 38024ft 387kts
24-Feb-21 14:59 38.931156 -108.478583 246 38010ft 388kts
24-Feb-21 15:00 38.885882 -108.604174 246 38019ft 388kts
24-Feb-21 15:01 38.840402 -108.729799 246 38024ft 387kts
24-Feb-21 15:02 38.794812 -108.855195 246 38026ft 388kts
24-Feb-21 15:03 38.749023 -108.980609 246 38042ft 388kts
24-Feb-21 15:04 38.703065 -109.105960 245 38035ft 389kts
24-Feb-21 15:05 38.657000 -109.231072 245 38028ft 390kts
24-Feb-21 15:06 38.610691 -109.356331 245 38020ft 389kts
24-Feb-21 15:07 38.564104 -109.481807 245 38015ft 390kts
24-Feb-21 15:08 38.517552 -109.606678 245 38013ft 390kts
24-Feb-21 15:09 38.470756 -109.731684 245 38014ft 390kts
24-Feb-21 15:10 38.423838 -109.856495 245 38018ft 390kts
24-Feb-21 15:11 38.376704 -109.981366 245 38020ft 390kts
24-Feb-21 15:12 38.329361 -110.106278 245 38025ft 391kts
24-Feb-21 15:13 38.282012 -110.230697 245 38028ft 391kts
24-Feb-21 15:14 38.234413 -110.355260 245 38029ft 391kts
24-Feb-21 15:15 38.186560 -110.479979 245 38029ft 392kts
24-Feb-21 15:16 38.138522 -110.604667 245 38030ft 393kts
24-Feb-21 15:17 38.090218 -110.729555 245 38032ft 394kts
24-Feb-21 15:18 38.041657 -110.854578 244 38035ft 396kts
24-Feb-21 15:20 37.992787 -110.979899 244 38037ft 396kts
24-Feb-21 15:21 37.944016 -111.104478 244 38040ft 395kts
24-Feb-21 15:22 37.895001 -111.229164 244 38049ft 396kts
24-Feb-21 15:23 37.845781 -111.353872 244 38051ft 397kts
24-Feb-21 15:24 37.796171 -111.479067 244 38041ft 398kts
24-Feb-21 15:25 37.746549 -111.603798 244 38035ft 399kts
24-Feb-21 15:26 37.696456 -111.729213 244 38038ft 399kts
24-Feb-21 15:27 37.646710 -111.854172 244 38034ft 399kts
24-Feb-21 15:28 37.596224 -111.979171 244 38036ft 399kts
24-Feb-21 15:29 37.545562 -112.104092 244 38038ft 400kts
24-Feb-21 15:30 37.490362 -112.225505 240 38044ft 401kts
24-Feb-21 15:31 37.432092 -112.345325 240 38046ft 400kts
24-Feb-21 15:32 37.374029 -112.465220 240 38040ft 401kts
24-Feb-21 15:33 37.316490 -112.585250 240 38050ft 401kts
24-Feb-21 15:34 37.258847 -112.704713 240 38053ft 401kts
24-Feb-21 15:35 37.200616 -112.824612 240 38054ft 401kts
24-Feb-21 15:36 37.142416 -112.943958 240 38056ft 402kts
24-Feb-21 15:37 37.083990 -113.063328 240 38055ft 401kts
24-Feb-21 15:38 37.025468 -113.182467 240 38050ft 402kts
24-Feb-21 15:39 36.966511 -113.302069 240 36133ft 405kts
24-Feb-21 15:40 36.907201 -113.421949 240 32906ft 405kts
24-Feb-21 15:41 36.848760 -113.539660 241 30401ft 390kts
24-Feb-21 15:41 36.801898 -113.633763 241 28462ft 377kts
24-Feb-21 15:43 36.738747 -113.760503 241 25816ft 362kts
24-Feb-21 15:44 36.686140 -113.865746 241 23609ft 352kts
24-Feb-21 15:44 36.643371 -113.950520 240 21821ft 344kts
24-Feb-21 15:46 36.584643 -114.066665 240 19360ft 335kts
24-Feb-21 15:46 36.543690 -114.147570 240 17643ft 328kts
24-Feb-21 15:47 36.495437 -114.242081 239 15600ft 321kts
24-Feb-21 15:48 36.447686 -114.334926 239 13552ft 316kts
24-Feb-21 15:50 36.393956 -114.439215 239 12079ft 286kts
24-Feb-21 15:51 36.351019 -114.522815 239 11255ft 289kts
24-Feb-21 15:51 36.313009 -114.589580 222 10644ft 283kts
24-Feb-21 15:52 36.241313 -114.634032 206 9872ft 281kts
24-Feb-21 15:53 36.170881 -114.673229 205 9079ft 276kts
24-Feb-21 15:54 36.101889 -114.711532 205 8310ft 258kts
24-Feb-21 15:55 36.071367 -114.772836 277 8022ft 229kts
24-Feb-21 15:56 36.073673 -114.850000 270 7427ft 235kts
24-Feb-21 15:57 36.073458 -114.931760 269 5925ft 240kts
24-Feb-21 15:58 36.073691 -115.011925 270 3940ft 211kts
24-Feb-21 15:59 36.073400 -115.073961 272 3019ft 148kts
24-Feb-21 16:00 36.073655 -115.122823 272 2259ft 140kts
24-Feb-21 16:01 36.074360 -115.149800 299 2189ft 23kts
24-Feb-21 16:02 36.079787 -115.153930 335 2189ft 24kts
24-Feb-21 16:03 36.083903 -115.154099 64 2189ft 13kts
24-Feb-21 16:04 36.083327 -115.152734 179 2189ft 0kts
24-Feb-21 16:05 36.083327 -115.152734 179 2189ft 0kts
24-Feb-21 16:06 36.083327 -115.152734 179 2189ft 0kts
24-Feb-21 16:07 36.083327 -115.152734 179 2189ft 0kts
24-Feb-21 16:08 36.083327 -115.152734 179 2189ft 0kts
24-Feb-21 16:09 36.083327 -115.152734 179 2189ft 0kts
24-Feb-21 16:10 36.083327 -115.152734 179 2189ft 0kts
24-Feb-21 16:11 36.083327 -115.152734 179 2189ft 0kts
24-Feb-21 16:12 36.083327 -115.152734 179 2189ft 0kts
24-Feb-21 16:13 36.083327 -115.152734 179 2189ft 0kts
24-Feb-21 16:14 36.083327 -115.152734 179 2189ft 0kts
24-Feb-21 16:15 36.083327 -115.152734 179 2189ft 0kts

Navigation Log

Ident Type
Flight plan parsing failed, navigation log unavailable